sensor_id;sensor_type;location;lat;lon;timestamp;P1;durP1;ratioP1;P2;durP2;ratioP2
75730;SDS011;64350;47.450;19.124;2023-03-02T05:26:24;23.15;;;11.82;;
75730;SDS011;64350;47.450;19.124;2023-03-02T05:28:49;22.10;;;10.90;;
75730;SDS011;64350;47.450;19.124;2023-03-02T05:31:48;24.50;;;12.93;;
75730;SDS011;64350;47.450;19.124;2023-03-02T05:34:08;25.75;;;12.13;;
75730;SDS011;64350;47.450;19.124;2023-03-02T05:36:35;26.45;;;12.27;;
75730;SDS011;64350;47.450;19.124;2023-03-02T05:39:01;23.67;;;12.07;;
75730;SDS011;64350;47.450;19.124;2023-03-02T05:41:28;24.55;;;12.10;;
75730;SDS011;64350;47.450;19.124;2023-03-02T05:43:53;23.33;;;12.07;;
75730;SDS011;64350;47.450;19.124;2023-03-02T05:46:19;23.20;;;11.80;;
75730;SDS011;64350;47.450;19.124;2023-03-02T05:48:44;28.63;;;12.00;;
75730;SDS011;64350;47.450;19.124;2023-03-02T05:51:10;29.27;;;11.90;;
75730;SDS011;64350;47.450;19.124;2023-03-02T05:53:36;27.75;;;11.77;;
75730;SDS011;64350;47.450;19.124;2023-03-02T05:56:01;22.50;;;11.90;;
75730;SDS011;64350;47.450;19.124;2023-03-02T05:58:27;22.98;;;12.37;;
75730;SDS011;64350;47.450;19.124;2023-03-02T06:00:55;26.47;;;12.73;;
75730;SDS011;64350;47.450;19.124;2023-03-02T06:03:21;25.15;;;12.13;;
75730;SDS011;64350;47.450;19.124;2023-03-02T06:05:47;26.23;;;12.53;;
75730;SDS011;64350;47.450;19.124;2023-03-02T06:08:19;26.58;;;12.32;;
75730;SDS011;64350;47.450;19.124;2023-03-02T06:10:48;23.80;;;11.50;;
75730;SDS011;64350;47.450;19.124;2023-03-02T06:13:17;24.90;;;11.52;;
75730;SDS011;64350;47.450;19.124;2023-03-02T06:15:43;25.80;;;11.93;;
75730;SDS011;64350;47.450;19.124;2023-03-02T06:18:08;27.17;;;12.03;;
75730;SDS011;64350;47.450;19.124;2023-03-02T06:20:36;21.83;;;11.82;;
75730;SDS011;64350;47.450;19.124;2023-03-02T06:23:15;21.10;;;11.50;;
75730;SDS011;64350;47.450;19.124;2023-03-02T06:25:41;22.95;;;12.00;;
75730;SDS011;64350;47.450;19.124;2023-03-02T06:28:13;24.83;;;12.00;;
75730;SDS011;64350;47.450;19.124;2023-03-02T06:30:39;25.42;;;12.30;;
75730;SDS011;64350;47.450;19.124;2023-03-02T06:33:05;25.20;;;11.30;;
75730;SDS011;64350;47.450;19.124;2023-03-02T06:35:31;20.27;;;11.83;;
75730;SDS011;64350;47.450;19.124;2023-03-02T06:37:57;24.95;;;12.05;;
75730;SDS011;64350;47.450;19.124;2023-03-02T06:40:23;25.97;;;12.83;;
75730;SDS011;64350;47.450;19.124;2023-03-02T06:42:48;21.53;;;11.83;;
75730;SDS011;64350;47.450;19.124;2023-03-02T06:45:14;24.08;;;11.93;;
75730;SDS011;64350;47.450;19.124;2023-03-02T06:47:39;21.00;;;12.30;;
75730;SDS011;64350;47.450;19.124;2023-03-02T06:50:07;24.20;;;12.47;;
75730;SDS011;64350;47.450;19.124;2023-03-02T06:52:33;21.15;;;11.85;;
75730;SDS011;64350;47.450;19.124;2023-03-02T06:54:59;23.83;;;11.77;;
75730;SDS011;64350;47.450;19.124;2023-03-02T06:57:24;21.60;;;11.90;;
75730;SDS011;64350;47.450;19.124;2023-03-02T06:59:57;19.73;;;11.45;;
75730;SDS011;64350;47.450;19.124;2023-03-02T07:02:23;19.97;;;11.77;;
75730;SDS011;64350;47.450;19.124;2023-03-02T07:04:48;22.17;;;11.65;;
75730;SDS011;64350;47.450;19.124;2023-03-02T07:07:14;21.63;;;12.37;;
75730;SDS011;64350;47.450;19.124;2023-03-02T07:09:39;21.60;;;12.17;;
75730;SDS011;64350;47.450;19.124;2023-03-02T07:12:05;20.27;;;12.40;;
75730;SDS011;64350;47.450;19.124;2023-03-02T07:14:30;21.65;;;12.20;;
75730;SDS011;64350;47.450;19.124;2023-03-02T07:16:55;21.97;;;12.13;;
75730;SDS011;64350;47.450;19.124;2023-03-02T07:19:21;20.50;;;12.40;;
75730;SDS011;64350;47.450;19.124;2023-03-02T07:21:46;20.95;;;12.15;;
75730;SDS011;64350;47.450;19.124;2023-03-02T07:24:12;23.03;;;11.57;;
75730;SDS011;64350;47.450;19.124;2023-03-02T07:26:37;20.47;;;11.87;;
75730;SDS011;64350;47.450;19.124;2023-03-02T07:29:02;19.47;;;11.83;;
75730;SDS011;64350;47.450;19.124;2023-03-02T07:31:28;20.13;;;11.97;;
75730;SDS011;64350;47.450;19.124;2023-03-02T07:33:53;20.42;;;12.25;;
75730;SDS011;64350;47.450;19.124;2023-03-02T07:36:19;20.03;;;12.67;;
75730;SDS011;64350;47.450;19.124;2023-03-02T07:38:44;24.60;;;12.90;;
75730;SDS011;64350;47.450;19.124;2023-03-02T07:41:10;20.17;;;12.27;;
75730;SDS011;64350;47.450;19.124;2023-03-02T08:02:16;24.30;;;12.40;;
75730;SDS011;64350;47.450;19.124;2023-03-02T08:04:42;17.90;;;11.98;;
75730;SDS011;64350;47.450;19.124;2023-03-02T08:07:08;18.60;;;11.15;;
75730;SDS011;64350;47.450;19.124;2023-03-02T08:09:33;13.83;;;7.87;;
75730;SDS011;64350;47.450;19.124;2023-03-02T08:11:59;16.23;;;9.87;;
75730;SDS011;64350;47.450;19.124;2023-03-02T08:14:24;15.60;;;9.33;;
75730;SDS011;64350;47.450;19.124;2023-03-02T08:16:50;13.20;;;8.00;;
75730;SDS011;64350;47.450;19.124;2023-03-02T08:19:16;14.98;;;8.05;;
75730;SDS011;64350;47.450;19.124;2023-03-02T08:21:42;14.52;;;8.48;;
75730;SDS011;64350;47.450;19.124;2023-03-02T08:24:08;14.37;;;8.43;;
75730;SDS011;64350;47.450;19.124;2023-03-02T08:26:34;13.82;;;8.05;;
75730;SDS011;64350;47.450;19.124;2023-03-02T08:28:59;15.57;;;7.90;;
75730;SDS011;64350;47.450;19.124;2023-03-02T08:31:25;18.10;;;8.50;;
75730;SDS011;64350;47.450;19.124;2023-03-02T08:33:51;15.57;;;8.68;;
75730;SDS011;64350;47.450;19.124;2023-03-02T08:36:17;19.53;;;9.03;;
75730;SDS011;64350;47.450;19.124;2023-03-02T08:38:43;16.08;;;8.40;;
75730;SDS011;64350;47.450;19.124;2023-03-02T08:41:11;17.25;;;9.60;;
75730;SDS011;64350;47.450;19.124;2023-03-02T08:43:38;14.02;;;8.32;;
75730;SDS011;64350;47.450;19.124;2023-03-02T08:46:04;18.23;;;8.40;;
75730;SDS011;64350;47.450;19.124;2023-03-02T08:48:30;14.68;;;8.43;;
75730;SDS011;64350;47.450;19.124;2023-03-02T08:51:03;14.90;;;8.90;;
75730;SDS011;64350;47.450;19.124;2023-03-02T08:53:31;13.45;;;7.32;;
75730;SDS011;64350;47.450;19.124;2023-03-02T08:55:58;13.20;;;7.22;;
75730;SDS011;64350;47.450;19.124;2023-03-02T08:58:24;11.70;;;6.20;;
75730;SDS011;64350;47.450;19.124;2023-03-02T09:00:50;10.50;;;5.63;;
75730;SDS011;64350;47.450;19.124;2023-03-02T09:03:15;12.13;;;6.10;;
75730;SDS011;64350;47.450;19.124;2023-03-02T09:05:41;11.77;;;5.67;;
75730;SDS011;64350;47.450;19.124;2023-03-02T09:08:07;9.88;;;5.12;;
75730;SDS011;64350;47.450;19.124;2023-03-02T09:10:33;11.63;;;5.22;;
75730;SDS011;64350;47.450;19.124;2023-03-02T09:12:59;13.05;;;4.82;;
75730;SDS011;64350;47.450;19.124;2023-03-02T09:15:25;7.65;;;4.55;;
75730;SDS011;64350;47.450;19.124;2023-03-02T09:17:50;8.87;;;4.83;;
75730;SDS011;64350;47.450;19.124;2023-03-02T09:20:16;9.43;;;5.37;;
75730;SDS011;64350;47.450;19.124;2023-03-02T09:22:41;11.33;;;5.20;;
75730;SDS011;64350;47.450;19.124;2023-03-02T09:25:13;11.70;;;5.30;;
75730;SDS011;64350;47.450;19.124;2023-03-02T09:27:38;10.25;;;5.20;;
75730;SDS011;64350;47.450;19.124;2023-03-02T09:30:04;9.43;;;5.00;;
75730;SDS011;64350;47.450;19.124;2023-03-02T09:32:30;11.52;;;5.32;;
75730;SDS011;64350;47.450;19.124;2023-03-02T09:34:56;9.57;;;4.90;;
75730;SDS011;64350;47.450;19.124;2023-03-02T09:37:21;10.57;;;5.68;;
75730;SDS011;64350;47.450;19.124;2023-03-02T09:39:46;9.87;;;5.47;;
75730;SDS011;64350;47.450;19.124;2023-03-02T09:42:15;9.87;;;5.27;;
75730;SDS011;64350;47.450;19.124;2023-03-02T09:47:35;10.10;;;5.72;;
75730;SDS011;64350;47.450;19.124;2023-03-02T09:55:31;10.25;;;5.93;;
75730;SDS011;64350;47.450;19.124;2023-03-02T09:57:58;10.45;;;5.57;;
75730;SDS011;64350;47.450;19.124;2023-03-02T10:00:44;10.15;;;5.72;;
75730;SDS011;64350;47.450;19.124;2023-03-02T10:03:12;14.53;;;5.50;;
75730;SDS011;64350;47.450;19.124;2023-03-02T10:05:41;15.63;;;8.20;;
75730;SDS011;64350;47.450;19.124;2023-03-02T10:08:19;10.73;;;6.15;;
75730;SDS011;64350;47.450;19.124;2023-03-02T10:22:03;9.40;;;5.78;;
75730;SDS011;64350;47.450;19.124;2023-03-02T10:25:27;9.60;;;5.75;;
75730;SDS011;64350;47.450;19.124;2023-03-02T10:28:23;10.50;;;5.90;;
75730;SDS011;64350;47.450;19.124;2023-03-02T10:30:59;10.63;;;6.60;;
75730;SDS011;64350;47.450;19.124;2023-03-02T10:33:33;11.65;;;6.12;;
75730;SDS011;64350;47.450;19.124;2023-03-02T10:36:00;10.65;;;6.30;;
75730;SDS011;64350;47.450;19.124;2023-03-02T10:38:27;11.10;;;6.62;;
75730;SDS011;64350;47.450;19.124;2023-03-02T10:41:02;12.40;;;6.47;;
75730;SDS011;64350;47.450;19.124;2023-03-02T10:43:33;11.15;;;6.37;;
75730;SDS011;64350;47.450;19.124;2023-03-02T10:46:41;14.05;;;6.70;;
75730;SDS011;64350;47.450;19.124;2023-03-02T10:52:04;11.17;;;6.40;;
75730;SDS011;64350;47.450;19.124;2023-03-02T10:54:33;11.65;;;6.53;;
75730;SDS011;64350;47.450;19.124;2023-03-02T10:57:02;12.35;;;6.72;;
75730;SDS011;64350;47.450;19.124;2023-03-02T11:02:19;11.75;;;6.72;;
75730;SDS011;64350;47.450;19.124;2023-03-02T11:07:50;13.13;;;6.10;;
75730;SDS011;64350;47.450;19.124;2023-03-02T11:10:21;10.05;;;6.75;;
75730;SDS011;64350;47.450;19.124;2023-03-02T11:13:16;10.60;;;7.00;;
75730;SDS011;64350;47.450;19.124;2023-03-02T11:21:12;11.65;;;6.32;;
75730;SDS011;64350;47.450;19.124;2023-03-02T11:26:23;11.43;;;6.72;;
75730;SDS011;64350;47.450;19.124;2023-03-02T11:28:51;10.98;;;7.10;;
75730;SDS011;64350;47.450;19.124;2023-03-02T11:31:20;11.07;;;6.20;;
75730;SDS011;64350;47.450;19.124;2023-03-02T11:37:19;12.02;;;6.50;;
75730;SDS011;64350;47.450;19.124;2023-03-02T11:40:08;10.35;;;6.53;;
75730;SDS011;64350;47.450;19.124;2023-03-02T11:42:33;11.38;;;6.95;;
75730;SDS011;64350;47.450;19.124;2023-03-02T11:47:37;10.93;;;6.65;;
75730;SDS011;64350;47.450;19.124;2023-03-02T11:50:04;12.37;;;7.62;;
75730;SDS011;64350;47.450;19.124;2023-03-02T11:52:32;11.38;;;6.50;;
75730;SDS011;64350;47.450;19.124;2023-03-02T11:57:47;10.33;;;6.07;;
75730;SDS011;64350;47.450;19.124;2023-03-02T12:00:27;9.73;;;5.62;;
75730;SDS011;64350;47.450;19.124;2023-03-02T12:05:40;10.32;;;5.85;;
75730;SDS011;64350;47.450;19.124;2023-03-02T12:15:53;9.30;;;5.23;;
75730;SDS011;64350;47.450;19.124;2023-03-02T12:20:57;9.87;;;5.90;;
75730;SDS011;64350;47.450;19.124;2023-03-02T12:23:27;9.95;;;5.93;;
75730;SDS011;64350;47.450;19.124;2023-03-02T12:26:07;9.73;;;5.55;;
75730;SDS011;64350;47.450;19.124;2023-03-02T12:31:45;9.87;;;6.60;;
75730;SDS011;64350;47.450;19.124;2023-03-02T12:37:07;9.95;;;6.30;;
75730;SDS011;64350;47.450;19.124;2023-03-02T12:45:09;12.47;;;6.57;;
75730;SDS011;64350;47.450;19.124;2023-03-02T12:47:39;12.25;;;6.62;;
75730;SDS011;64350;47.450;19.124;2023-03-02T12:50:06;13.90;;;6.78;;
75730;SDS011;64350;47.450;19.124;2023-03-02T12:52:42;12.00;;;6.20;;
75730;SDS011;64350;47.450;19.124;2023-03-02T12:57:36;13.32;;;7.07;;
75730;SDS011;64350;47.450;19.124;2023-03-02T13:00:02;12.50;;;6.35;;
75730;SDS011;64350;47.450;19.124;2023-03-02T13:02:31;16.27;;;7.27;;
75730;SDS011;64350;47.450;19.124;2023-03-02T13:04:58;11.68;;;6.82;;
75730;SDS011;64350;47.450;19.124;2023-03-02T13:07:33;13.55;;;7.53;;
75730;SDS011;64350;47.450;19.124;2023-03-02T13:10:05;12.95;;;7.32;;
75730;SDS011;64350;47.450;19.124;2023-03-02T13:12:50;13.60;;;7.00;;
75730;SDS011;64350;47.450;19.124;2023-03-02T13:15:15;12.97;;;6.17;;
75730;SDS011;64350;47.450;19.124;2023-03-02T13:17:42;11.55;;;6.37;;
75730;SDS011;64350;47.450;19.124;2023-03-02T13:20:09;13.67;;;6.63;;
75730;SDS011;64350;47.450;19.124;2023-03-02T13:22:37;14.63;;;7.53;;
75730;SDS011;64350;47.450;19.124;2023-03-02T13:25:05;12.25;;;6.47;;
75730;SDS011;64350;47.450;19.124;2023-03-02T13:27:32;14.68;;;7.47;;
75730;SDS011;64350;47.450;19.124;2023-03-02T13:30:20;13.63;;;6.03;;
75730;SDS011;64350;47.450;19.124;2023-03-02T13:32:50;13.73;;;6.15;;
75730;SDS011;64350;47.450;19.124;2023-03-02T13:35:26;13.62;;;6.90;;
75730;SDS011;64350;47.450;19.124;2023-03-02T13:37:55;12.98;;;6.15;;
75730;SDS011;64350;47.450;19.124;2023-03-02T13:45:54;14.35;;;6.50;;
75730;SDS011;64350;47.450;19.124;2023-03-02T13:48:21;13.27;;;6.15;;
75730;SDS011;64350;47.450;19.124;2023-03-02T13:53:26;12.40;;;6.75;;
75730;SDS011;64350;47.450;19.124;2023-03-02T13:55:54;11.20;;;5.80;;
75730;SDS011;64350;47.450;19.124;2023-03-02T13:58:21;12.50;;;6.40;;
75730;SDS011;64350;47.450;19.124;2023-03-02T14:00:47;11.70;;;6.30;;
75730;SDS011;64350;47.450;19.124;2023-03-02T14:03:21;14.25;;;6.55;;
75730;SDS011;64350;47.450;19.124;2023-03-02T14:05:48;11.88;;;5.70;;
75730;SDS011;64350;47.450;19.124;2023-03-02T14:08:13;13.00;;;6.10;;
75730;SDS011;64350;47.450;19.124;2023-03-02T14:10:39;14.60;;;6.30;;
75730;SDS011;64350;47.450;19.124;2023-03-02T14:13:07;11.75;;;5.60;;
75730;SDS011;64350;47.450;19.124;2023-03-02T14:15:37;13.88;;;5.78;;
75730;SDS011;64350;47.450;19.124;2023-03-02T14:18:09;9.45;;;5.65;;
75730;SDS011;64350;47.450;19.124;2023-03-02T14:20:58;9.93;;;5.40;;
75730;SDS011;64350;47.450;19.124;2023-03-02T14:23:24;11.25;;;5.28;;
75730;SDS011;64350;47.450;19.124;2023-03-02T14:25:50;12.03;;;5.23;;
75730;SDS011;64350;47.450;19.124;2023-03-02T14:28:27;12.18;;;5.70;;
75730;SDS011;64350;47.450;19.124;2023-03-02T14:30:56;11.20;;;5.82;;
75730;SDS011;64350;47.450;19.124;2023-03-02T14:33:29;10.85;;;5.50;;
75730;SDS011;64350;47.450;19.124;2023-03-02T14:35:55;14.82;;;5.65;;
75730;SDS011;64350;47.450;19.124;2023-03-02T14:38:24;10.90;;;5.83;;
75730;SDS011;64350;47.450;19.124;2023-03-02T14:40:50;13.70;;;5.50;;
75730;SDS011;64350;47.450;19.124;2023-03-02T14:43:16;12.70;;;5.90;;
75730;SDS011;64350;47.450;19.124;2023-03-02T14:45:43;12.43;;;5.90;;
75730;SDS011;64350;47.450;19.124;2023-03-02T14:48:11;13.10;;;5.35;;
75730;SDS011;64350;47.450;19.124;2023-03-02T14:50:42;13.33;;;6.67;;
75730;SDS011;64350;47.450;19.124;2023-03-02T14:53:30;13.45;;;5.65;;
75730;SDS011;64350;47.450;19.124;2023-03-02T14:56:03;10.25;;;5.55;;
75730;SDS011;64350;47.450;19.124;2023-03-02T14:58:41;12.68;;;5.72;;
75730;SDS011;64350;47.450;19.124;2023-03-02T15:01:10;12.00;;;5.85;;
75730;SDS011;64350;47.450;19.124;2023-03-02T15:03:41;13.07;;;6.07;;
75730;SDS011;64350;47.450;19.124;2023-03-02T15:06:23;13.18;;;5.70;;
75730;SDS011;64350;47.450;19.124;2023-03-02T15:08:51;15.07;;;5.60;;
75730;SDS011;64350;47.450;19.124;2023-03-02T15:11:17;16.40;;;6.35;;
75730;SDS011;64350;47.450;19.124;2023-03-02T15:13:42;10.53;;;5.70;;
75730;SDS011;64350;47.450;19.124;2023-03-02T15:16:11;16.20;;;7.17;;
75730;SDS011;64350;47.450;19.124;2023-03-02T15:18:39;13.25;;;5.68;;
75730;SDS011;64350;47.450;19.124;2023-03-02T15:21:04;10.87;;;4.70;;
75730;SDS011;64350;47.450;19.124;2023-03-02T15:23:30;11.48;;;5.37;;
75730;SDS011;64350;47.450;19.124;2023-03-02T15:25:57;13.70;;;4.90;;
75730;SDS011;64350;47.450;19.124;2023-03-02T15:28:24;11.30;;;4.87;;
75730;SDS011;64350;47.450;19.124;2023-03-02T15:30:49;12.43;;;5.70;;
75730;SDS011;64350;47.450;19.124;2023-03-02T15:33:14;14.50;;;6.40;;
75730;SDS011;64350;47.450;19.124;2023-03-02T15:35:40;10.67;;;4.90;;
75730;SDS011;64350;47.450;19.124;2023-03-02T15:38:05;13.45;;;5.10;;
75730;SDS011;64350;47.450;19.124;2023-03-02T15:40:31;12.20;;;6.25;;
75730;SDS011;64350;47.450;19.124;2023-03-02T15:42:57;13.97;;;5.50;;
75730;SDS011;64350;47.450;19.124;2023-03-02T15:45:23;13.05;;;5.68;;
75730;SDS011;64350;47.450;19.124;2023-03-02T15:47:48;11.43;;;6.37;;
75730;SDS011;64350;47.450;19.124;2023-03-02T15:50:14;11.83;;;5.90;;
75730;SDS011;64350;47.450;19.124;2023-03-02T15:52:39;12.17;;;5.97;;
75730;SDS011;64350;47.450;19.124;2023-03-02T15:55:06;11.05;;;5.22;;
75730;SDS011;64350;47.450;19.124;2023-03-02T15:57:35;13.80;;;5.07;;
75730;SDS011;64350;47.450;19.124;2023-03-02T16:00:01;16.37;;;5.72;;
75730;SDS011;64350;47.450;19.124;2023-03-02T16:02:27;11.53;;;6.47;;
75730;SDS011;64350;47.450;19.124;2023-03-02T16:04:52;11.53;;;6.23;;
75730;SDS011;64350;47.450;19.124;2023-03-02T16:07:17;15.53;;;6.27;;
75730;SDS011;64350;47.450;19.124;2023-03-02T16:09:43;12.00;;;5.90;;
75730;SDS011;64350;47.450;19.124;2023-03-02T16:12:09;11.70;;;6.10;;
75730;SDS011;64350;47.450;19.124;2023-03-02T16:14:34;14.27;;;7.20;;
75730;SDS011;64350;47.450;19.124;2023-03-02T16:17:00;14.83;;;7.20;;
75730;SDS011;64350;47.450;19.124;2023-03-02T16:19:25;13.77;;;7.37;;
75730;SDS011;64350;47.450;19.124;2023-03-02T16:21:51;15.00;;;7.80;;
75730;SDS011;64350;47.450;19.124;2023-03-02T16:24:16;15.25;;;7.32;;
75730;SDS011;64350;47.450;19.124;2023-03-02T16:26:42;17.13;;;6.87;;
75730;SDS011;64350;47.450;19.124;2023-03-02T16:29:09;15.70;;;7.18;;
75730;SDS011;64350;47.450;19.124;2023-03-02T16:31:35;14.55;;;7.25;;
75730;SDS011;64350;47.450;19.124;2023-03-02T16:34:04;16.90;;;7.67;;
75730;SDS011;64350;47.450;19.124;2023-03-02T16:36:34;15.93;;;7.78;;
75730;SDS011;64350;47.450;19.124;2023-03-02T16:39:00;17.10;;;7.80;;
75730;SDS011;64350;47.450;19.124;2023-03-02T16:41:25;14.97;;;8.37;;
75730;SDS011;64350;47.450;19.124;2023-03-02T16:43:52;17.33;;;7.27;;
75730;SDS011;64350;47.450;19.124;2023-03-02T16:46:19;26.20;;;10.80;;
75730;SDS011;64350;47.450;19.124;2023-03-02T16:48:46;23.58;;;10.90;;
75730;SDS011;64350;47.450;19.124;2023-03-02T16:51:12;26.52;;;11.50;;
75730;SDS011;64350;47.450;19.124;2023-03-02T16:53:41;26.73;;;11.98;;
75730;SDS011;64350;47.450;19.124;2023-03-02T16:56:07;24.17;;;11.60;;
75730;SDS011;64350;47.450;19.124;2023-03-02T16:58:33;26.00;;;12.30;;
75730;SDS011;64350;47.450;19.124;2023-03-02T17:01:02;25.90;;;13.15;;
75730;SDS011;64350;47.450;19.124;2023-03-02T17:03:28;32.17;;;12.93;;
75730;SDS011;64350;47.450;19.124;2023-03-02T17:05:54;28.45;;;13.62;;
75730;SDS011;64350;47.450;19.124;2023-03-02T17:08:19;26.47;;;13.80;;
75730;SDS011;64350;47.450;19.124;2023-03-02T17:10:45;31.60;;;13.70;;
75730;SDS011;64350;47.450;19.124;2023-03-02T17:13:10;26.83;;;13.40;;
75730;SDS011;64350;47.450;19.124;2023-03-02T17:15:39;31.23;;;14.38;;
75730;SDS011;64350;47.450;19.124;2023-03-02T17:18:05;28.73;;;13.95;;
75730;SDS011;64350;47.450;19.124;2023-03-02T17:20:31;30.73;;;14.53;;
75730;SDS011;64350;47.450;19.124;2023-03-02T17:22:56;26.27;;;13.80;;
75730;SDS011;64350;47.450;19.124;2023-03-02T17:25:22;29.83;;;14.13;;
75730;SDS011;64350;47.450;19.124;2023-03-02T17:27:47;27.55;;;12.93;;
75730;SDS011;64350;47.450;19.124;2023-03-02T17:30:13;36.40;;;15.83;;
75730;SDS011;64350;47.450;19.124;2023-03-02T17:32:39;30.35;;;14.38;;
75730;SDS011;64350;47.450;19.124;2023-03-02T17:35:09;31.27;;;15.13;;
75730;SDS011;64350;47.450;19.124;2023-03-02T17:37:36;32.72;;;15.00;;
75730;SDS011;64350;47.450;19.124;2023-03-02T17:40:02;28.55;;;15.05;;
75730;SDS011;64350;47.450;19.124;2023-03-02T17:42:28;32.63;;;15.10;;
75730;SDS011;64350;47.450;19.124;2023-03-02T17:44:54;35.40;;;15.57;;
75730;SDS011;64350;47.450;19.124;2023-03-02T17:47:19;37.27;;;16.03;;
75730;SDS011;64350;47.450;19.124;2023-03-02T17:49:45;36.90;;;17.40;;
75730;SDS011;64350;47.450;19.124;2023-03-02T17:52:11;34.45;;;17.12;;
75730;SDS011;64350;47.450;19.124;2023-03-02T17:54:37;29.57;;;15.93;;
75730;SDS011;64350;47.450;19.124;2023-03-02T17:57:03;37.42;;;17.83;;
75730;SDS011;64350;47.450;19.124;2023-03-02T17:59:28;42.33;;;18.30;;
75730;SDS011;64350;47.450;19.124;2023-03-02T18:01:54;39.03;;;17.97;;
75730;SDS011;64350;47.450;19.124;2023-03-02T18:04:20;37.05;;;17.92;;
75730;SDS011;64350;47.450;19.124;2023-03-02T18:06:45;39.87;;;18.63;;
75730;SDS011;64350;47.450;19.124;2023-03-02T18:09:11;45.83;;;19.27;;
75730;SDS011;64350;47.450;19.124;2023-03-02T18:11:36;41.60;;;21.03;;
75730;SDS011;64350;47.450;19.124;2023-03-02T18:14:02;47.70;;;20.17;;
75730;SDS011;64350;47.450;19.124;2023-03-02T18:16:28;45.83;;;21.47;;
75730;SDS011;64350;47.450;19.124;2023-03-02T18:18:54;44.13;;;19.73;;
75730;SDS011;64350;47.450;19.124;2023-03-02T18:21:20;38.03;;;19.55;;
75730;SDS011;64350;47.450;19.124;2023-03-02T18:23:46;41.75;;;19.92;;
75730;SDS011;64350;47.450;19.124;2023-03-02T18:26:14;50.03;;;20.63;;
75730;SDS011;64350;47.450;19.124;2023-03-02T18:28:39;46.42;;;21.42;;
75730;SDS011;64350;47.450;19.124;2023-03-02T18:31:07;48.00;;;21.83;;
75730;SDS011;64350;47.450;19.124;2023-03-02T18:33:36;52.65;;;24.63;;
75730;SDS011;64350;47.450;19.124;2023-03-02T18:36:02;49.10;;;24.77;;
75730;SDS011;64350;47.450;19.124;2023-03-02T18:38:30;47.53;;;23.45;;
75730;SDS011;64350;47.450;19.124;2023-03-02T18:40:57;52.60;;;25.20;;
75730;SDS011;64350;47.450;19.124;2023-03-02T18:43:24;51.47;;;23.97;;
75730;SDS011;64350;47.450;19.124;2023-03-02T18:45:50;51.92;;;24.63;;
75730;SDS011;64350;47.450;19.124;2023-03-02T18:48:16;48.87;;;24.15;;
75730;SDS011;64350;47.450;19.124;2023-03-02T18:50:41;44.00;;;21.93;;
75730;SDS011;64350;47.450;19.124;2023-03-02T18:53:07;45.63;;;22.48;;
75730;SDS011;64350;47.450;19.124;2023-03-02T18:55:33;43.93;;;21.43;;
75730;SDS011;64350;47.450;19.124;2023-03-02T18:58:01;44.42;;;22.30;;
75730;SDS011;64350;47.450;19.124;2023-03-02T19:00:27;43.17;;;19.15;;
75730;SDS011;64350;47.450;19.124;2023-03-02T19:02:53;41.53;;;20.57;;
75730;SDS011;64350;47.450;19.124;2023-03-02T19:05:18;39.30;;;19.95;;
75730;SDS011;64350;47.450;19.124;2023-03-02T19:07:44;40.07;;;18.93;;
75730;SDS011;64350;47.450;19.124;2023-03-02T19:10:11;39.33;;;18.90;;
75730;SDS011;64350;47.450;19.124;2023-03-02T19:12:37;39.78;;;19.17;;
75730;SDS011;64350;47.450;19.124;2023-03-02T19:15:03;42.13;;;19.33;;
75730;SDS011;64350;47.450;19.124;2023-03-02T19:17:29;46.03;;;21.70;;
75730;SDS011;64350;47.450;19.124;2023-03-02T19:19:55;45.07;;;19.93;;
75730;SDS011;64350;47.450;19.124;2023-03-02T19:22:20;39.03;;;19.10;;
75730;SDS011;64350;47.450;19.124;2023-03-02T19:24:46;41.50;;;20.20;;
75730;SDS011;64350;47.450;19.124;2023-03-02T19:27:12;42.53;;;21.67;;
75730;SDS011;64350;47.450;19.124;2023-03-02T19:29:38;42.33;;;20.85;;
75730;SDS011;64350;47.450;19.124;2023-03-02T19:32:04;41.08;;;20.02;;
75730;SDS011;64350;47.450;19.124;2023-03-02T19:34:31;44.97;;;22.08;;
75730;SDS011;64350;47.450;19.124;2023-03-02T19:36:57;44.83;;;21.93;;
75730;SDS011;64350;47.450;19.124;2023-03-02T19:39:22;51.03;;;26.27;;
75730;SDS011;64350;47.450;19.124;2023-03-02T19:41:47;56.17;;;27.63;;
75730;SDS011;64350;47.450;19.124;2023-03-02T19:44:13;54.63;;;25.93;;
75730;SDS011;64350;47.450;19.124;2023-03-02T19:46:41;61.85;;;27.23;;
75730;SDS011;64350;47.450;19.124;2023-03-02T19:49:06;54.00;;;25.77;;
75730;SDS011;64350;47.450;19.124;2023-03-02T19:51:32;54.40;;;26.42;;
75730;SDS011;64350;47.450;19.124;2023-03-02T19:53:58;52.50;;;26.27;;
75730;SDS011;64350;47.450;19.124;2023-03-02T19:56:25;57.45;;;28.77;;
75730;SDS011;64350;47.450;19.124;2023-03-02T19:58:54;60.35;;;28.83;;
75730;SDS011;64350;47.450;19.124;2023-03-02T20:01:20;60.65;;;29.35;;
75730;SDS011;64350;47.450;19.124;2023-03-02T20:03:52;61.60;;;31.13;;
75730;SDS011;64350;47.450;19.124;2023-03-02T20:06:22;57.03;;;30.00;;
75730;SDS011;64350;47.450;19.124;2023-03-02T20:08:49;54.40;;;28.20;;
75730;SDS011;64350;47.450;19.124;2023-03-02T20:11:15;50.97;;;27.87;;
75730;SDS011;64350;47.450;19.124;2023-03-02T20:13:41;55.33;;;27.70;;
75730;SDS011;64350;47.450;19.124;2023-03-02T20:16:06;54.63;;;27.60;;
75730;SDS011;64350;47.450;19.124;2023-03-02T20:18:33;54.92;;;27.48;;
75730;SDS011;64350;47.450;19.124;2023-03-02T20:20:59;53.97;;;26.45;;
75730;SDS011;64350;47.450;19.124;2023-03-02T20:23:24;52.77;;;27.90;;
75730;SDS011;64350;47.450;19.124;2023-03-02T20:25:50;57.23;;;27.10;;
75730;SDS011;64350;47.450;19.124;2023-03-02T20:28:16;53.87;;;26.60;;
75730;SDS011;64350;47.450;19.124;2023-03-02T20:30:44;51.20;;;26.15;;
75730;SDS011;64350;47.450;19.124;2023-03-02T20:33:12;55.67;;;26.20;;
75730;SDS011;64350;47.450;19.124;2023-03-02T20:35:44;55.70;;;26.98;;
75730;SDS011;64350;47.450;19.124;2023-03-02T20:38:38;55.30;;;27.20;;
75730;SDS011;64350;47.450;19.124;2023-03-02T20:41:11;54.28;;;25.52;;
75730;SDS011;64350;47.450;19.124;2023-03-02T20:43:38;53.25;;;25.90;;
75730;SDS011;64350;47.450;19.124;2023-03-02T20:46:05;54.27;;;25.67;;
75730;SDS011;64350;47.450;19.124;2023-03-02T20:48:31;51.50;;;26.15;;
75730;SDS011;64350;47.450;19.124;2023-03-02T20:50:57;56.47;;;26.75;;
75730;SDS011;64350;47.450;19.124;2023-03-02T20:53:23;52.57;;;26.17;;
75730;SDS011;64350;47.450;19.124;2023-03-02T20:55:49;52.28;;;25.95;;
75730;SDS011;64350;47.450;19.124;2023-03-02T20:58:14;59.30;;;28.30;;
75730;SDS011;64350;47.450;19.124;2023-03-02T21:00:41;59.53;;;29.20;;
75730;SDS011;64350;47.450;19.124;2023-03-02T21:03:07;57.50;;;29.33;;
75730;SDS011;64350;47.450;19.124;2023-03-02T21:05:37;58.92;;;28.25;;
75730;SDS011;64350;47.450;19.124;2023-03-02T21:08:04;58.30;;;28.10;;
75730;SDS011;64350;47.450;19.124;2023-03-02T21:10:35;56.83;;;26.30;;
75730;SDS011;64350;47.450;19.124;2023-03-02T21:13:02;61.33;;;29.42;;
75730;SDS011;64350;47.450;19.124;2023-03-02T21:15:31;65.15;;;32.03;;
75730;SDS011;64350;47.450;19.124;2023-03-02T21:18:00;69.20;;;32.40;;
75730;SDS011;64350;47.450;19.124;2023-03-02T21:20:27;74.77;;;32.17;;
75730;SDS011;64350;47.450;19.124;2023-03-02T21:22:57;73.10;;;32.83;;
75730;SDS011;64350;47.450;19.124;2023-03-02T21:25:28;68.03;;;32.38;;